Litchfield, New Hampshire
Current Conditions -  °F | °C
As of 12:51 AM on Friday 19 Dec 2014 (Local Time) from KASH Reporting Station
Overcast Overcast  
Wind Chill: 29°   Ceiling: 3300
Heat Index: 35°   Visibility: 10mi
Dew Point: 25°   Wind: 7mph
Humidity: 68%   Direction: 310°NW
Pressure: 29.87"   Gusts: NA
Location:  42.84°N, 71.48°W
Report Text: KASH 190551Z AUTO 31006KT 10SM SCT028 BKN033 OVC043 02/M04 A2987 RMK AO2 51005 T00161038 10038 20016 SLP368
Loading
Personal Weather Stations






























Interactive Weather Map New forecast layout! Learn more

10-Day Weather Forecast

Advertisements
Track Severe Weather on mobile